sensor_id;sensor_type;location;lat;lon;timestamp;temperature;humidity
12015;DHT22;6066;48.138;16.402;2023-05-29T00:02:24;13.20;99.90
12015;DHT22;6066;48.138;16.402;2023-05-29T00:04:51;13.20;99.90
12015;DHT22;6066;48.138;16.402;2023-05-29T00:07:17;13.20;99.90
12015;DHT22;6066;48.138;16.402;2023-05-29T00:09:44;13.20;99.90
12015;DHT22;6066;48.138;16.402;2023-05-29T00:12:11;13.10;99.90
12015;DHT22;6066;48.138;16.402;2023-05-29T00:14:37;13.10;99.90
12015;DHT22;6066;48.138;16.402;2023-05-29T00:17:06;13.20;99.90
12015;DHT22;6066;48.138;16.402;2023-05-29T00:19:32;13.20;99.90
12015;DHT22;6066;48.138;16.402;2023-05-29T00:21:59;13.20;99.90
12015;DHT22;6066;48.138;16.402;2023-05-29T00:24:26;13.10;99.90
12015;DHT22;6066;48.138;16.402;2023-05-29T00:26:52;13.10;99.90
12015;DHT22;6066;48.138;16.402;2023-05-29T00:29:19;13.00;99.90
12015;DHT22;6066;48.138;16.402;2023-05-29T00:31:46;13.00;99.90
12015;DHT22;6066;48.138;16.402;2023-05-29T00:34:14;12.90;99.90
12015;DHT22;6066;48.138;16.402;2023-05-29T00:36:41;12.90;99.90
12015;DHT22;6066;48.138;16.402;2023-05-29T00:39:07;12.80;99.90
12015;DHT22;6066;48.138;16.402;2023-05-29T00:41:35;12.80;99.90
12015;DHT22;6066;48.138;16.402;2023-05-29T00:44:02;12.80;99.90
12015;DHT22;6066;48.138;16.402;2023-05-29T00:46:29;12.70;99.90
12015;DHT22;6066;48.138;16.402;2023-05-29T00:48:56;12.60;99.90
12015;DHT22;6066;48.138;16.402;2023-05-29T00:51:24;12.60;99.90
12015;DHT22;6066;48.138;16.402;2023-05-29T00:53:51;12.60;99.90
12015;DHT22;6066;48.138;16.402;2023-05-29T00:56:19;12.50;99.90
12015;DHT22;6066;48.138;16.402;2023-05-29T00:58:46;12.50;99.90
12015;DHT22;6066;48.138;16.402;2023-05-29T01:01:14;12.40;99.90
12015;DHT22;6066;48.138;16.402;2023-05-29T01:03:41;12.40;99.90
12015;DHT22;6066;48.138;16.402;2023-05-29T01:06:08;12.40;99.90
12015;DHT22;6066;48.138;16.402;2023-05-29T01:08:37;12.40;99.90
12015;DHT22;6066;48.138;16.402;2023-05-29T01:11:05;12.40;99.90
12015;DHT22;6066;48.138;16.402;2023-05-29T01:13:35;12.30;99.90
12015;DHT22;6066;48.138;16.402;2023-05-29T01:16:03;12.30;99.90
12015;DHT22;6066;48.138;16.402;2023-05-29T01:18:38;12.30;99.90
12015;DHT22;6066;48.138;16.402;2023-05-29T01:21:06;12.20;99.90
12015;DHT22;6066;48.138;16.402;2023-05-29T01:23:40;12.20;99.90
12015;DHT22;6066;48.138;16.402;2023-05-29T01:26:20;12.20;99.90
12015;DHT22;6066;48.138;16.402;2023-05-29T01:28:52;12.10;99.90
12015;DHT22;6066;48.138;16.402;2023-05-29T01:31:20;12.00;99.90
12015;DHT22;6066;48.138;16.402;2023-05-29T01:33:52;12.00;99.90
12015;DHT22;6066;48.138;16.402;2023-05-29T01:36:19;12.00;99.90
12015;DHT22;6066;48.138;16.402;2023-05-29T01:38:45;12.00;99.90
12015;DHT22;6066;48.138;16.402;2023-05-29T01:41:12;12.00;99.90
12015;DHT22;6066;48.138;16.402;2023-05-29T01:43:40;12.00;99.90
12015;DHT22;6066;48.138;16.402;2023-05-29T01:46:08;11.90;99.90
12015;DHT22;6066;48.138;16.402;2023-05-29T01:48:35;11.90;99.90
12015;DHT22;6066;48.138;16.402;2023-05-29T01:51:02;11.90;99.90
12015;DHT22;6066;48.138;16.402;2023-05-29T01:53:29;11.90;99.90
12015;DHT22;6066;48.138;16.402;2023-05-29T01:55:56;11.90;99.90
12015;DHT22;6066;48.138;16.402;2023-05-29T01:58:23;11.90;99.90
12015;DHT22;6066;48.138;16.402;2023-05-29T02:00:50;11.90;99.90
12015;DHT22;6066;48.138;16.402;2023-05-29T02:03:19;11.90;99.90
12015;DHT22;6066;48.138;16.402;2023-05-29T02:05:46;11.90;99.90
12015;DHT22;6066;48.138;16.402;2023-05-29T02:08:13;11.80;99.90
12015;DHT22;6066;48.138;16.402;2023-05-29T02:10:39;11.80;99.90
12015;DHT22;6066;48.138;16.402;2023-05-29T02:13:06;11.70;99.90
12015;DHT22;6066;48.138;16.402;2023-05-29T02:15:33;11.70;99.90
12015;DHT22;6066;48.138;16.402;2023-05-29T02:18:00;11.70;99.90
12015;DHT22;6066;48.138;16.402;2023-05-29T02:20:28;11.70;99.90
12015;DHT22;6066;48.138;16.402;2023-05-29T02:22:55;11.70;99.90
12015;DHT22;6066;48.138;16.402;2023-05-29T02:25:22;11.70;99.90
12015;DHT22;6066;48.138;16.402;2023-05-29T02:27:48;11.70;99.90
12015;DHT22;6066;48.138;16.402;2023-05-29T02:30:15;11.70;99.90
12015;DHT22;6066;48.138;16.402;2023-05-29T02:32:42;11.70;99.90
12015;DHT22;6066;48.138;16.402;2023-05-29T02:35:08;11.60;99.90
12015;DHT22;6066;48.138;16.402;2023-05-29T02:37:37;11.60;99.90
12015;DHT22;6066;48.138;16.402;2023-05-29T02:40:04;11.60;99.90
12015;DHT22;6066;48.138;16.402;2023-05-29T02:42:31;11.60;99.90
12015;DHT22;6066;48.138;16.402;2023-05-29T02:44:58;11.60;99.90
12015;DHT22;6066;48.138;16.402;2023-05-29T02:47:25;11.60;99.90
12015;DHT22;6066;48.138;16.402;2023-05-29T02:49:52;11.60;99.90
12015;DHT22;6066;48.138;16.402;2023-05-29T02:52:18;11.60;99.90
12015;DHT22;6066;48.138;16.402;2023-05-29T02:54:46;11.50;99.90
12015;DHT22;6066;48.138;16.402;2023-05-29T02:57:13;11.50;99.90
12015;DHT22;6066;48.138;16.402;2023-05-29T02:59:40;11.40;99.90
12015;DHT22;6066;48.138;16.402;2023-05-29T03:02:06;11.30;99.90
12015;DHT22;6066;48.138;16.402;2023-05-29T03:04:33;11.30;99.90
12015;DHT22;6066;48.138;16.402;2023-05-29T03:07:00;11.30;99.90
12015;DHT22;6066;48.138;16.402;2023-05-29T03:09:26;11.20;99.90
12015;DHT22;6066;48.138;16.402;2023-05-29T03:11:54;11.20;99.90
12015;DHT22;6066;48.138;16.402;2023-05-29T03:14:21;11.10;99.90
12015;DHT22;6066;48.138;16.402;2023-05-29T03:16:49;11.10;99.90
12015;DHT22;6066;48.138;16.402;2023-05-29T03:19:15;11.10;99.90
12015;DHT22;6066;48.138;16.402;2023-05-29T03:21:42;11.00;99.90
12015;DHT22;6066;48.138;16.402;2023-05-29T03:24:11;11.00;99.90
12015;DHT22;6066;48.138;16.402;2023-05-29T03:26:38;11.00;99.90
12015;DHT22;6066;48.138;16.402;2023-05-29T03:29:07;11.10;99.90
12015;DHT22;6066;48.138;16.402;2023-05-29T03:31:34;11.10;99.90
12015;DHT22;6066;48.138;16.402;2023-05-29T03:34:00;11.10;99.90
12015;DHT22;6066;48.138;16.402;2023-05-29T03:36:27;11.20;99.90
12015;DHT22;6066;48.138;16.402;2023-05-29T03:38:54;11.30;99.90
12015;DHT22;6066;48.138;16.402;2023-05-29T03:41:21;11.30;99.90
12015;DHT22;6066;48.138;16.402;2023-05-29T03:43:47;11.40;99.90
12015;DHT22;6066;48.138;16.402;2023-05-29T03:46:16;11.40;99.90
12015;DHT22;6066;48.138;16.402;2023-05-29T03:48:42;11.50;99.90
12015;DHT22;6066;48.138;16.402;2023-05-29T03:51:09;11.50;99.90
12015;DHT22;6066;48.138;16.402;2023-05-29T03:53:36;11.50;99.90
12015;DHT22;6066;48.138;16.402;2023-05-29T03:56:02;11.60;99.90
12015;DHT22;6066;48.138;16.402;2023-05-29T03:58:29;11.70;99.90
12015;DHT22;6066;48.138;16.402;2023-05-29T04:00:56;11.70;99.90
12015;DHT22;6066;48.138;16.402;2023-05-29T04:03:24;11.80;99.90
12015;DHT22;6066;48.138;16.402;2023-05-29T04:05:51;11.80;99.90
12015;DHT22;6066;48.138;16.402;2023-05-29T04:08:17;11.90;99.90
12015;DHT22;6066;48.138;16.402;2023-05-29T04:10:44;11.90;99.90
12015;DHT22;6066;48.138;16.402;2023-05-29T04:13:11;12.10;99.90
12015;DHT22;6066;48.138;16.402;2023-05-29T04:15:38;12.10;99.90
12015;DHT22;6066;48.138;16.402;2023-05-29T04:18:05;12.20;99.90
12015;DHT22;6066;48.138;16.402;2023-05-29T04:20:33;12.30;99.90
12015;DHT22;6066;48.138;16.402;2023-05-29T04:23:00;12.40;99.90
12015;DHT22;6066;48.138;16.402;2023-05-29T04:25:26;12.50;99.90
12015;DHT22;6066;48.138;16.402;2023-05-29T04:27:53;12.70;99.90
12015;DHT22;6066;48.138;16.402;2023-05-29T04:30:20;12.80;99.90
12015;DHT22;6066;48.138;16.402;2023-05-29T04:32:46;13.00;99.90
12015;DHT22;6066;48.138;16.402;2023-05-29T04:35:13;13.10;99.90
12015;DHT22;6066;48.138;16.402;2023-05-29T04:37:41;13.20;99.90
12015;DHT22;6066;48.138;16.402;2023-05-29T04:40:09;13.40;99.90
12015;DHT22;6066;48.138;16.402;2023-05-29T04:42:37;13.50;99.90
12015;DHT22;6066;48.138;16.402;2023-05-29T04:45:05;13.60;99.90
12015;DHT22;6066;48.138;16.402;2023-05-29T04:47:32;13.70;99.90
12015;DHT22;6066;48.138;16.402;2023-05-29T04:49:59;13.80;99.90
12015;DHT22;6066;48.138;16.402;2023-05-29T04:52:26;13.80;99.90
12015;DHT22;6066;48.138;16.402;2023-05-29T04:54:54;13.90;99.90
12015;DHT22;6066;48.138;16.402;2023-05-29T04:57:21;14.00;99.90
12015;DHT22;6066;48.138;16.402;2023-05-29T04:59:48;14.10;99.90
12015;DHT22;6066;48.138;16.402;2023-05-29T05:02:15;14.10;99.90
12015;DHT22;6066;48.138;16.402;2023-05-29T05:04:42;14.20;99.90
12015;DHT22;6066;48.138;16.402;2023-05-29T05:07:10;14.30;99.90
12015;DHT22;6066;48.138;16.402;2023-05-29T05:09:37;14.40;99.90
12015;DHT22;6066;48.138;16.402;2023-05-29T05:12:05;14.40;99.90
12015;DHT22;6066;48.138;16.402;2023-05-29T05:14:32;14.50;99.90
12015;DHT22;6066;48.138;16.402;2023-05-29T05:16:59;14.60;99.90
12015;DHT22;6066;48.138;16.402;2023-05-29T05:19:25;14.70;99.90
12015;DHT22;6066;48.138;16.402;2023-05-29T05:21:52;14.80;99.90
12015;DHT22;6066;48.138;16.402;2023-05-29T05:24:19;14.90;99.90
12015;DHT22;6066;48.138;16.402;2023-05-29T05:26:45;15.00;99.90
12015;DHT22;6066;48.138;16.402;2023-05-29T05:29:14;15.00;99.90
12015;DHT22;6066;48.138;16.402;2023-05-29T05:31:40;15.10;99.90
12015;DHT22;6066;48.138;16.402;2023-05-29T05:34:07;15.20;99.90
12015;DHT22;6066;48.138;16.402;2023-05-29T05:36:34;15.20;99.90
12015;DHT22;6066;48.138;16.402;2023-05-29T05:39:02;15.30;99.90
12015;DHT22;6066;48.138;16.402;2023-05-29T05:41:28;15.40;99.90
12015;DHT22;6066;48.138;16.402;2023-05-29T05:43:55;15.40;99.90
12015;DHT22;6066;48.138;16.402;2023-05-29T05:46:23;15.50;99.90
12015;DHT22;6066;48.138;16.402;2023-05-29T05:48:50;15.60;99.90
12015;DHT22;6066;48.138;16.402;2023-05-29T05:51:17;15.60;99.90
12015;DHT22;6066;48.138;16.402;2023-05-29T05:53:44;15.70;99.90
12015;DHT22;6066;48.138;16.402;2023-05-29T05:56:11;15.80;99.90
12015;DHT22;6066;48.138;16.402;2023-05-29T05:58:38;15.80;99.90
12015;DHT22;6066;48.138;16.402;2023-05-29T06:01:05;15.90;99.90
12015;DHT22;6066;48.138;16.402;2023-05-29T06:03:34;16.00;99.90
12015;DHT22;6066;48.138;16.402;2023-05-29T06:06:02;16.00;99.90
12015;DHT22;6066;48.138;16.402;2023-05-29T06:08:29;16.10;99.90
12015;DHT22;6066;48.138;16.402;2023-05-29T06:10:56;16.20;99.90
12015;DHT22;6066;48.138;16.402;2023-05-29T06:13:22;16.20;99.90
12015;DHT22;6066;48.138;16.402;2023-05-29T06:15:49;16.40;99.90
12015;DHT22;6066;48.138;16.402;2023-05-29T06:18:16;16.40;99.90
12015;DHT22;6066;48.138;16.402;2023-05-29T06:20:44;16.50;99.90
12015;DHT22;6066;48.138;16.402;2023-05-29T06:23:11;16.60;99.90
12015;DHT22;6066;48.138;16.402;2023-05-29T06:25:37;16.60;99.90
12015;DHT22;6066;48.138;16.402;2023-05-29T06:28:04;16.70;99.90
12015;DHT22;6066;48.138;16.402;2023-05-29T06:30:32;16.70;99.90
12015;DHT22;6066;48.138;16.402;2023-05-29T06:32:58;16.80;99.90
12015;DHT22;6066;48.138;16.402;2023-05-29T06:35:25;16.90;99.90
12015;DHT22;6066;48.138;16.402;2023-05-29T06:37:53;17.00;99.90
12015;DHT22;6066;48.138;16.402;2023-05-29T06:40:20;17.10;99.90
12015;DHT22;6066;48.138;16.402;2023-05-29T06:42:46;17.20;99.90
12015;DHT22;6066;48.138;16.402;2023-05-29T06:45:13;17.30;99.90
12015;DHT22;6066;48.138;16.402;2023-05-29T06:47:40;17.40;99.90
12015;DHT22;6066;48.138;16.402;2023-05-29T06:50:07;17.40;99.90
12015;DHT22;6066;48.138;16.402;2023-05-29T06:52:34;17.50;99.90
12015;DHT22;6066;48.138;16.402;2023-05-29T06:55:02;17.60;99.90
12015;DHT22;6066;48.138;16.402;2023-05-29T06:57:29;17.70;99.90
12015;DHT22;6066;48.138;16.402;2023-05-29T06:59:56;17.90;99.90
12015;DHT22;6066;48.138;16.402;2023-05-29T07:02:22;18.00;99.90
12015;DHT22;6066;48.138;16.402;2023-05-29T07:04:49;18.10;99.90
12015;DHT22;6066;48.138;16.402;2023-05-29T07:07:16;18.20;99.90
12015;DHT22;6066;48.138;16.402;2023-05-29T07:09:43;18.40;99.90
12015;DHT22;6066;48.138;16.402;2023-05-29T07:12:11;18.50;99.90
12015;DHT22;6066;48.138;16.402;2023-05-29T07:14:38;18.60;99.90
12015;DHT22;6066;48.138;16.402;2023-05-29T07:17:05;18.70;99.90
12015;DHT22;6066;48.138;16.402;2023-05-29T07:19:31;18.80;99.90
12015;DHT22;6066;48.138;16.402;2023-05-29T07:21:59;18.90;99.90
12015;DHT22;6066;48.138;16.402;2023-05-29T07:24:25;19.00;99.90
12015;DHT22;6066;48.138;16.402;2023-05-29T07:26:52;19.10;99.90
12015;DHT22;6066;48.138;16.402;2023-05-29T07:29:21;19.20;99.90
12015;DHT22;6066;48.138;16.402;2023-05-29T07:31:48;19.40;99.90
12015;DHT22;6066;48.138;16.402;2023-05-29T07:34:15;19.50;99.90
12015;DHT22;6066;48.138;16.402;2023-05-29T07:36:55;19.60;99.90
12015;DHT22;6066;48.138;16.402;2023-05-29T07:39:22;19.70;99.90
12015;DHT22;6066;48.138;16.402;2023-05-29T07:41:49;19.80;99.90
12015;DHT22;6066;48.138;16.402;2023-05-29T07:44:16;19.90;99.90
12015;DHT22;6066;48.138;16.402;2023-05-29T07:46:46;20.00;99.90
12015;DHT22;6066;48.138;16.402;2023-05-29T07:49:13;20.10;99.90
12015;DHT22;6066;48.138;16.402;2023-05-29T07:51:40;20.20;99.90
12015;DHT22;6066;48.138;16.402;2023-05-29T07:54:07;20.30;99.90
12015;DHT22;6066;48.138;16.402;2023-05-29T07:56:34;20.40;99.90
12015;DHT22;6066;48.138;16.402;2023-05-29T07:59:00;20.50;99.90
12015;DHT22;6066;48.138;16.402;2023-05-29T08:01:29;20.50;99.90
12015;DHT22;6066;48.138;16.402;2023-05-29T08:03:57;20.50;99.90
12015;DHT22;6066;48.138;16.402;2023-05-29T08:06:24;20.60;99.90
12015;DHT22;6066;48.138;16.402;2023-05-29T08:08:50;20.60;99.90
12015;DHT22;6066;48.138;16.402;2023-05-29T08:11:18;20.60;99.90
12015;DHT22;6066;48.138;16.402;2023-05-29T08:13:45;20.70;99.90
12015;DHT22;6066;48.138;16.402;2023-05-29T08:16:12;20.80;99.90
12015;DHT22;6066;48.138;16.402;2023-05-29T08:18:39;20.90;99.90
12015;DHT22;6066;48.138;16.402;2023-05-29T08:21:07;21.00;99.90
12015;DHT22;6066;48.138;16.402;2023-05-29T08:23:34;21.10;99.90
12015;DHT22;6066;48.138;16.402;2023-05-29T08:26:01;21.20;99.90
12015;DHT22;6066;48.138;16.402;2023-05-29T08:28:28;21.20;99.90
12015;DHT22;6066;48.138;16.402;2023-05-29T08:30:55;21.20;99.90
12015;DHT22;6066;48.138;16.402;2023-05-29T08:33:22;21.30;99.90
12015;DHT22;6066;48.138;16.402;2023-05-29T08:35:49;21.40;99.90
12015;DHT22;6066;48.138;16.402;2023-05-29T08:38:17;21.40;99.90
12015;DHT22;6066;48.138;16.402;2023-05-29T08:40:43;21.50;99.90
12015;DHT22;6066;48.138;16.402;2023-05-29T08:43:12;21.50;99.90
12015;DHT22;6066;48.138;16.402;2023-05-29T08:45:42;21.50;99.90
12015;DHT22;6066;48.138;16.402;2023-05-29T08:48:11;21.60;99.90
12015;DHT22;6066;48.138;16.402;2023-05-29T08:50:39;21.60;99.90
12015;DHT22;6066;48.138;16.402;2023-05-29T08:53:09;21.70;99.90
12015;DHT22;6066;48.138;16.402;2023-05-29T08:55:37;21.80;99.90
12015;DHT22;6066;48.138;16.402;2023-05-29T08:58:04;21.80;99.90
12015;DHT22;6066;48.138;16.402;2023-05-29T09:00:31;21.90;99.90
12015;DHT22;6066;48.138;16.402;2023-05-29T09:02:58;21.90;99.90
12015;DHT22;6066;48.138;16.402;2023-05-29T09:05:26;21.90;99.90
12015;DHT22;6066;48.138;16.402;2023-05-29T09:07:53;22.00;99.90
12015;DHT22;6066;48.138;16.402;2023-05-29T09:10:19;22.20;99.90
12015;DHT22;6066;48.138;16.402;2023-05-29T09:12:48;22.20;99.90
12015;DHT22;6066;48.138;16.402;2023-05-29T09:15:19;22.30;99.90
12015;DHT22;6066;48.138;16.402;2023-05-29T09:17:49;22.30;99.90
12015;DHT22;6066;48.138;16.402;2023-05-29T09:20:16;22.40;99.90
12015;DHT22;6066;48.138;16.402;2023-05-29T09:22:46;22.40;99.90
12015;DHT22;6066;48.138;16.402;2023-05-29T09:25:18;22.30;99.90
12015;DHT22;6066;48.138;16.402;2023-05-29T09:27:46;22.20;99.90
12015;DHT22;6066;48.138;16.402;2023-05-29T09:30:14;22.10;99.90
12015;DHT22;6066;48.138;16.402;2023-05-29T09:32:57;22.00;99.90
12015;DHT22;6066;48.138;16.402;2023-05-29T09:35:24;22.00;99.90
12015;DHT22;6066;48.138;16.402;2023-05-29T09:37:52;22.10;99.90
12015;DHT22;6066;48.138;16.402;2023-05-29T09:40:18;22.20;99.90
12015;DHT22;6066;48.138;16.402;2023-05-29T09:42:45;22.20;99.90
12015;DHT22;6066;48.138;16.402;2023-05-29T09:45:15;22.30;99.90
12015;DHT22;6066;48.138;16.402;2023-05-29T09:47:43;22.30;99.90
12015;DHT22;6066;48.138;16.402;2023-05-29T09:50:14;22.40;99.90
12015;DHT22;6066;48.138;16.402;2023-05-29T09:52:44;22.60;99.90
12015;DHT22;6066;48.138;16.402;2023-05-29T09:55:11;22.60;99.90
12015;DHT22;6066;48.138;16.402;2023-05-29T09:57:38;22.70;99.90
12015;DHT22;6066;48.138;16.402;2023-05-29T10:00:06;22.80;99.90
12015;DHT22;6066;48.138;16.402;2023-05-29T10:02:39;23.00;99.90
12015;DHT22;6066;48.138;16.402;2023-05-29T10:05:06;23.20;99.90
12015;DHT22;6066;48.138;16.402;2023-05-29T10:07:34;23.20;99.90
12015;DHT22;6066;48.138;16.402;2023-05-29T10:10:02;23.20;99.90
12015;DHT22;6066;48.138;16.402;2023-05-29T10:12:30;23.20;99.90
12015;DHT22;6066;48.138;16.402;2023-05-29T10:14:59;23.20;99.90
12015;DHT22;6066;48.138;16.402;2023-05-29T10:17:28;23.30;99.90
12015;DHT22;6066;48.138;16.402;2023-05-29T10:19:59;23.40;99.90
12015;DHT22;6066;48.138;16.402;2023-05-29T10:22:27;23.40;99.90
12015;DHT22;6066;48.138;16.402;2023-05-29T10:24:55;23.50;99.90
12015;DHT22;6066;48.138;16.402;2023-05-29T10:27:22;23.50;99.90
12015;DHT22;6066;48.138;16.402;2023-05-29T10:29:50;23.50;99.90
12015;DHT22;6066;48.138;16.402;2023-05-29T10:32:21;23.50;99.90
12015;DHT22;6066;48.138;16.402;2023-05-29T10:34:49;23.60;99.90
12015;DHT22;6066;48.138;16.402;2023-05-29T10:37:24;23.70;99.90
12015;DHT22;6066;48.138;16.402;2023-05-29T10:40:02;23.70;99.90
12015;DHT22;6066;48.138;16.402;2023-05-29T10:42:43;23.70;99.90
12015;DHT22;6066;48.138;16.402;2023-05-29T10:45:10;23.80;99.90
12015;DHT22;6066;48.138;16.402;2023-05-29T10:47:37;23.90;99.90
12015;DHT22;6066;48.138;16.402;2023-05-29T10:50:04;23.90;99.90
12015;DHT22;6066;48.138;16.402;2023-05-29T10:52:33;23.90;99.90
12015;DHT22;6066;48.138;16.402;2023-05-29T10:54:59;24.10;99.90
12015;DHT22;6066;48.138;16.402;2023-05-29T10:57:29;24.10;99.90
12015;DHT22;6066;48.138;16.402;2023-05-29T11:00:04;24.00;99.90
12015;DHT22;6066;48.138;16.402;2023-05-29T11:02:38;24.10;99.90
12015;DHT22;6066;48.138;16.402;2023-05-29T11:05:06;24.20;99.90
12015;DHT22;6066;48.138;16.402;2023-05-29T11:07:51;24.30;99.90
12015;DHT22;6066;48.138;16.402;2023-05-29T11:10:30;24.50;99.90
12015;DHT22;6066;48.138;16.402;2023-05-29T11:13:07;24.70;99.90
12015;DHT22;6066;48.138;16.402;2023-05-29T11:15:33;24.70;99.90
12015;DHT22;6066;48.138;16.402;2023-05-29T11:18:05;24.70;99.90
12015;DHT22;6066;48.138;16.402;2023-05-29T11:20:42;24.60;99.90
12015;DHT22;6066;48.138;16.402;2023-05-29T11:23:14;24.50;99.90
12015;DHT22;6066;48.138;16.402;2023-05-29T11:25:44;24.50;99.90
12015;DHT22;6066;48.138;16.402;2023-05-29T11:28:11;24.50;99.90
12015;DHT22;6066;48.138;16.402;2023-05-29T11:30:44;24.50;99.90
12015;DHT22;6066;48.138;16.402;2023-05-29T11:33:14;24.60;99.90
12015;DHT22;6066;48.138;16.402;2023-05-29T11:35:43;24.70;99.90
12015;DHT22;6066;48.138;16.402;2023-05-29T11:38:10;24.90;99.90
12015;DHT22;6066;48.138;16.402;2023-05-29T11:40:38;24.90;99.90
12015;DHT22;6066;48.138;16.402;2023-05-29T11:43:05;25.00;99.90
12015;DHT22;6066;48.138;16.402;2023-05-29T11:45:32;25.00;99.90
12015;DHT22;6066;48.138;16.402;2023-05-29T11:47:59;25.00;99.90
12015;DHT22;6066;48.138;16.402;2023-05-29T11:50:26;25.10;99.90
12015;DHT22;6066;48.138;16.402;2023-05-29T11:52:53;25.20;99.90
12015;DHT22;6066;48.138;16.402;2023-05-29T11:55:20;25.30;99.90
12015;DHT22;6066;48.138;16.402;2023-05-29T11:57:49;25.40;99.90
12015;DHT22;6066;48.138;16.402;2023-05-29T12:00:17;25.20;99.90
12015;DHT22;6066;48.138;16.402;2023-05-29T12:02:44;25.20;99.90
12015;DHT22;6066;48.138;16.402;2023-05-29T12:05:12;25.10;99.90
12015;DHT22;6066;48.138;16.402;2023-05-29T12:07:46;25.20;99.90
12015;DHT22;6066;48.138;16.402;2023-05-29T12:10:14;25.20;99.90
12015;DHT22;6066;48.138;16.402;2023-05-29T12:12:40;25.20;99.90
12015;DHT22;6066;48.138;16.402;2023-05-29T12:15:09;25.40;99.90
12015;DHT22;6066;48.138;16.402;2023-05-29T12:17:37;25.40;99.90
12015;DHT22;6066;48.138;16.402;2023-05-29T12:20:04;25.60;99.90
12015;DHT22;6066;48.138;16.402;2023-05-29T12:22:35;25.60;99.90
12015;DHT22;6066;48.138;16.402;2023-05-29T12:25:05;25.70;99.90
12015;DHT22;6066;48.138;16.402;2023-05-29T12:27:32;25.70;99.90
12015;DHT22;6066;48.138;16.402;2023-05-29T12:30:03;25.70;99.90
12015;DHT22;6066;48.138;16.402;2023-05-29T12:32:35;25.70;99.90
12015;DHT22;6066;48.138;16.402;2023-05-29T12:35:09;25.60;99.90
12015;DHT22;6066;48.138;16.402;2023-05-29T12:37:36;25.70;99.60
12015;DHT22;6066;48.138;16.402;2023-05-29T12:40:09;25.70;99.90
12015;DHT22;6066;48.138;16.402;2023-05-29T12:42:37;25.80;99.90
12015;DHT22;6066;48.138;16.402;2023-05-29T12:45:04;25.90;99.90
12015;DHT22;6066;48.138;16.402;2023-05-29T12:47:32;26.00;99.90
12015;DHT22;6066;48.138;16.402;2023-05-29T12:50:00;25.90;99.90
12015;DHT22;6066;48.138;16.402;2023-05-29T12:52:30;25.60;99.90
12015;DHT22;6066;48.138;16.402;2023-05-29T12:54:57;25.50;99.90
12015;DHT22;6066;48.138;16.402;2023-05-29T12:57:23;25.60;99.90
12015;DHT22;6066;48.138;16.402;2023-05-29T12:59:50;25.60;99.90
12015;DHT22;6066;48.138;16.402;2023-05-29T13:02:17;25.60;99.90
12015;DHT22;6066;48.138;16.402;2023-05-29T13:04:43;25.70;99.90
12015;DHT22;6066;48.138;16.402;2023-05-29T13:07:11;25.80;99.90
12015;DHT22;6066;48.138;16.402;2023-05-29T13:09:38;25.80;99.90
12015;DHT22;6066;48.138;16.402;2023-05-29T13:12:05;25.80;99.90
12015;DHT22;6066;48.138;16.402;2023-05-29T13:14:32;25.80;99.90
12015;DHT22;6066;48.138;16.402;2023-05-29T13:16:58;25.90;99.90
12015;DHT22;6066;48.138;16.402;2023-05-29T13:19:25;25.90;99.90
12015;DHT22;6066;48.138;16.402;2023-05-29T13:21:52;25.90;99.50
12015;DHT22;6066;48.138;16.402;2023-05-29T13:24:20;25.90;99.90
12015;DHT22;6066;48.138;16.402;2023-05-29T13:26:46;25.80;98.70
12015;DHT22;6066;48.138;16.402;2023-05-29T13:29:15;25.80;99.90
12015;DHT22;6066;48.138;16.402;2023-05-29T13:31:42;25.70;99.90
12015;DHT22;6066;48.138;16.402;2023-05-29T13:34:09;25.70;99.90
12015;DHT22;6066;48.138;16.402;2023-05-29T13:36:35;25.60;99.90
12015;DHT22;6066;48.138;16.402;2023-05-29T13:39:02;25.70;98.80
12015;DHT22;6066;48.138;16.402;2023-05-29T13:41:31;25.80;99.90
12015;DHT22;6066;48.138;16.402;2023-05-29T13:43:57;25.90;99.90
12015;DHT22;6066;48.138;16.402;2023-05-29T13:46:25;25.90;99.90
12015;DHT22;6066;48.138;16.402;2023-05-29T13:48:52;25.90;98.30
12015;DHT22;6066;48.138;16.402;2023-05-29T13:51:19;25.80;99.90
12015;DHT22;6066;48.138;16.402;2023-05-29T13:53:45;25.70;99.90
12015;DHT22;6066;48.138;16.402;2023-05-29T13:56:12;25.80;99.90
12015;DHT22;6066;48.138;16.402;2023-05-29T13:58:40;25.80;99.90
12015;DHT22;6066;48.138;16.402;2023-05-29T14:01:07;25.90;99.90
12015;DHT22;6066;48.138;16.402;2023-05-29T14:03:33;25.90;99.30
12015;DHT22;6066;48.138;16.402;2023-05-29T14:06:01;25.90;99.90
12015;DHT22;6066;48.138;16.402;2023-05-29T14:08:30;25.90;99.30
12015;DHT22;6066;48.138;16.402;2023-05-29T14:10:57;25.90;99.90
12015;DHT22;6066;48.138;16.402;2023-05-29T14:13:23;26.10;99.90
12015;DHT22;6066;48.138;16.402;2023-05-29T14:15:51;26.10;99.90
12015;DHT22;6066;48.138;16.402;2023-05-29T14:18:20;26.10;99.90
12015;DHT22;6066;48.138;16.402;2023-05-29T14:20:47;26.00;99.90
12015;DHT22;6066;48.138;16.402;2023-05-29T14:23:13;26.10;99.30
12015;DHT22;6066;48.138;16.402;2023-05-29T14:25:41;26.10;98.00
12015;DHT22;6066;48.138;16.402;2023-05-29T14:28:07;26.10;97.50
12015;DHT22;6066;48.138;16.402;2023-05-29T14:30:35;26.00;99.00
12015;DHT22;6066;48.138;16.402;2023-05-29T14:33:03;25.90;98.80
12015;DHT22;6066;48.138;16.402;2023-05-29T14:35:30;25.70;98.70
12015;DHT22;6066;48.138;16.402;2023-05-29T14:37:56;25.60;98.00
12015;DHT22;6066;48.138;16.402;2023-05-29T14:40:23;25.60;97.80
12015;DHT22;6066;48.138;16.402;2023-05-29T14:42:50;25.60;99.90
12015;DHT22;6066;48.138;16.402;2023-05-29T14:45:16;25.60;99.90
12015;DHT22;6066;48.138;16.402;2023-05-29T14:47:43;25.70;99.90
12015;DHT22;6066;48.138;16.402;2023-05-29T14:50:11;25.70;97.20
12015;DHT22;6066;48.138;16.402;2023-05-29T14:52:39;25.70;96.90
12015;DHT22;6066;48.138;16.402;2023-05-29T14:55:05;25.60;97.90
12015;DHT22;6066;48.138;16.402;2023-05-29T14:57:32;25.60;98.70
12015;DHT22;6066;48.138;16.402;2023-05-29T15:00:00;25.60;97.70
12015;DHT22;6066;48.138;16.402;2023-05-29T15:02:26;25.50;99.90
12015;DHT22;6066;48.138;16.402;2023-05-29T15:04:53;25.40;99.90
12015;DHT22;6066;48.138;16.402;2023-05-29T15:07:22;25.40;98.40
12015;DHT22;6066;48.138;16.402;2023-05-29T15:09:49;25.30;98.70
12015;DHT22;6066;48.138;16.402;2023-05-29T15:12:16;25.20;98.50
12015;DHT22;6066;48.138;16.402;2023-05-29T15:14:43;25.10;97.90
12015;DHT22;6066;48.138;16.402;2023-05-29T15:17:09;25.20;97.80
12015;DHT22;6066;48.138;16.402;2023-05-29T15:19:36;25.30;98.30
12015;DHT22;6066;48.138;16.402;2023-05-29T15:22:03;25.30;98.20
12015;DHT22;6066;48.138;16.402;2023-05-29T15:24:31;25.30;99.90
12015;DHT22;6066;48.138;16.402;2023-05-29T15:26:58;25.30;98.60
12015;DHT22;6066;48.138;16.402;2023-05-29T15:29:24;25.40;99.40
12015;DHT22;6066;48.138;16.402;2023-05-29T15:31:51;25.20;99.90
12015;DHT22;6066;48.138;16.402;2023-05-29T15:34:18;25.10;97.00